Terminal Aerodrome Forecast
Issued by NWS

Home | Current Version | Previous Version | Text Only | Print | Product List | Glossary On
Versions: 1 2 3 4 5 6 7 8 9 10 11 12 13 14 15 16 17 18
642
FTAK31 PAJN 030649 CCA
TAFAPG
TAF COR
PAPG 030649Z 0306/0406 VRB03KT P6SM -SHRA SCT003 BKN015 OVC025
      TEMPO 0306/0309 5SM -SHRA BR BKN003 OVC015
     FM031300 VRB04KT P6SM VCSH SCT004 BKN025 BKN060
     FM031700 06006KT P6SM -SHRA BKN030 OVC050
     FM040300 VRB04KT P6SM -SHRA BKN035 OVC050
      AMD NOT SKED=

USA.gov is the U.S. government's official web portal to all federal, state and local government web resources and services.